Terminal Aerodrome Forecast
Issued by NWS

Home | Current Version | Previous Version | Text Only | Print | Product List | Glossary On
Versions: 1 2 3 4 5 6 7 8 9 10 11 12 13 14 15 16 17 18 19 20 21 22 23 24 25 26 27 28 29 30 31
000
FTUS41 KRNK 210539
TAFLWB
TAF
KLWB 210539Z 2106/2206 28009KT P6SM SCT022 BKN060
      TEMPO 2109/2111 BKN025
     FM211400 27014G24KT P6SM SCT025 BKN050
     FM212300 26005KT P6SM BKN150=

USA.gov is the U.S. government's official web portal to all federal, state and local government web resources and services.